Time;durP1;ratioP1;P1;durP2;ratioP2;P2;SDS_P1;SDS_P2;PMS_P1;PMS_P2;Temp;Humidity;BMP_temperature;BMP_pressure;BME280_temperature;BME280_humidity;BME280_pressure;Samples;Min_cycle;Max_cycle;Signal;HPM_P1;HPM_P2
2021/07/29 00:00:21;;;;;;;5.82;2.13;;;;;;;;;;5072270;28;20524;-76
2021/07/29 00:02:46;;;;;;;3.15;2.40;;;;;;;;;;5072055;28;20032;-76
2021/07/29 00:05:12;;;;;;;3.13;2.10;;;;;;;;;;5073327;28;20068;-76
2021/07/29 00:07:37;;;;;;;3.08;2.20;;;;;;;;;;5072060;28;20109;-76
2021/07/29 00:10:05;;;;;;;6.57;2.25;;;;;;;;;;5071992;28;20516;-76
2021/07/29 00:12:30;;;;;;;7.97;2.20;;;;;;;;;;5055209;28;20119;-76
2021/07/29 00:14:56;;;;;;;5.45;2.25;;;;;;;;;;5080550;28;20125;-76
2021/07/29 00:17:29;;;;;;;9.73;2.38;;;;;;;;;;5075229;28;20181;-76
2021/07/29 00:19:55;;;;;;;5.25;2.25;;;;;;;;;;5075513;28;20032;-76
2021/07/29 00:22:20;;;;;;;6.68;2.22;;;;;;;;;;5080814;28;20034;-76
2021/07/29 00:24:46;;;;;;;8.43;2.53;;;;;;;;;;5112273;28;20415;-76
2021/07/29 00:27:11;;;;;;;4.63;2.53;;;;;;;;;;5112170;28;20035;-76
2021/07/29 00:29:37;;;;;;;15.50;3.30;;;;;;;;;;5112171;28;20035;-76
2021/07/29 00:32:06;;;;;;;9.73;2.95;;;;;;;;;;5112253;28;20047;-76
2021/07/29 00:34:32;;;;;;;5.40;2.53;;;;;;;;;;5113434;28;20036;-76
2021/07/29 00:36:57;;;;;;;8.63;2.33;;;;;;;;;;5112164;28;20435;-76
2021/07/29 00:39:22;;;;;;;5.63;2.28;;;;;;;;;;5113642;28;20031;-76
2021/07/29 00:41:48;;;;;;;5.13;2.33;;;;;;;;;;5113387;28;20024;-76
2021/07/29 00:44:13;;;;;;;6.90;1.80;;;;;;;;;;5085919;28;20032;-76
2021/07/29 00:46:40;;;;;;;12.90;2.63;;;;;;;;;;5091978;28;20119;-76
2021/07/29 00:49:06;;;;;;;2.28;1.83;;;;;;;;;;5074964;28;20031;-76
2021/07/29 00:51:33;;;;;;;8.70;2.30;;;;;;;;;;5074808;28;20031;-76
2021/07/29 00:53:59;;;;;;;7.50;2.20;;;;;;;;;;5094725;28;20036;-76
2021/07/29 00:56:25;;;;;;;12.45;2.40;;;;;;;;;;5097215;28;20133;-76
2021/07/29 00:58:50;;;;;;;4.30;2.47;;;;;;;;;;5095791;28;20536;-76
2021/07/29 01:01:16;;;;;;;2.90;1.90;;;;;;;;;;5095911;28;20074;-76
2021/07/29 01:03:42;;;;;;;7.57;2.03;;;;;;;;;;5095873;28;20043;-76
2021/07/29 01:06:07;;;;;;;5.18;2.40;;;;;;;;;;5078737;28;20040;-76
2021/07/29 01:08:32;;;;;;;8.73;2.80;;;;;;;;;;5095040;28;20036;-76
2021/07/29 01:10:58;;;;;;;9.68;2.50;;;;;;;;;;5079066;28;20093;-76
2021/07/29 01:13:24;;;;;;;4.32;2.20;;;;;;;;;;5095579;28;20130;-76
2021/07/29 01:15:50;;;;;;;9.82;2.75;;;;;;;;;;5095042;28;20040;-76
2021/07/29 01:18:16;;;;;;;7.50;2.70;;;;;;;;;;5078755;28;20038;-76
2021/07/29 01:20:41;;;;;;;9.38;2.55;;;;;;;;;;5095632;28;20032;-76
2021/07/29 01:23:07;;;;;;;7.95;2.80;;;;;;;;;;5095760;28;20465;-76
2021/07/29 01:25:32;;;;;;;3.00;2.33;;;;;;;;;;5078268;28;20367;-76
2021/07/29 01:27:57;;;;;;;3.20;2.40;;;;;;;;;;5095349;28;20035;-76
2021/07/29 01:30:23;;;;;;;9.40;3.75;;;;;;;;;;5078338;28;20131;-76
2021/07/29 01:32:48;;;;;;;5.55;2.38;;;;;;;;;;5095049;28;20040;-76
2021/07/29 01:35:14;;;;;;;12.05;2.22;;;;;;;;;;5095441;28;20485;-76
2021/07/29 01:37:40;;;;;;;15.38;3.50;;;;;;;;;;5095456;28;20490;-76
2021/07/29 01:40:08;;;;;;;9.32;2.50;;;;;;;;;;5095110;28;20036;-76
2021/07/29 01:42:34;;;;;;;3.97;2.65;;;;;;;;;;5074828;28;20044;-76
2021/07/29 01:44:59;;;;;;;9.80;2.65;;;;;;;;;;5091357;28;20032;-76
2021/07/29 01:47:25;;;;;;;11.88;2.60;;;;;;;;;;5091738;28;20036;-76
2021/07/29 01:49:50;;;;;;;9.07;2.92;;;;;;;;;;5075822;28;20085;-76
2021/07/29 01:52:16;;;;;;;3.30;2.00;;;;;;;;;;5058041;28;20575;-76
2021/07/29 01:54:43;;;;;;;7.97;2.83;;;;;;;;;;5074668;28;20045;-76
2021/07/29 01:57:09;;;;;;;6.35;2.40;;;;;;;;;;5074713;28;20476;-76
2021/07/29 01:59:36;;;;;;;14.43;3.20;;;;;;;;;;5074777;28;20032;-76
2021/07/29 02:02:03;;;;;;;5.95;2.42;;;;;;;;;;5091181;28;20044;-76
2021/07/29 02:04:28;;;;;;;15.20;4.63;;;;;;;;;;5091311;28;20040;-76
2021/07/29 02:06:54;;;;;;;5.05;2.50;;;;;;;;;;5116093;28;20043;-76
2021/07/29 02:09:20;;;;;;;5.18;2.50;;;;;;;;;;5098040;28;20035;-76
2021/07/29 02:11:49;;;;;;;6.55;3.13;;;;;;;;;;5114314;28;20051;-76
2021/07/29 02:14:21;;;;;;;11.00;2.60;;;;;;;;;;5114908;28;20035;-76
2021/07/29 02:16:48;;;;;;;5.90;2.60;;;;;;;;;;5110464;28;20536;-77
2021/07/29 02:19:14;;;;;;;7.78;3.33;;;;;;;;;;5057569;28;20090;-76
2021/07/29 02:21:42;;;;;;;14.63;2.90;;;;;;;;;;5057547;28;20063;-75
2021/07/29 02:24:08;;;;;;;6.93;2.30;;;;;;;;;;5058022;28;20040;-77
2021/07/29 02:26:34;;;;;;;3.63;2.25;;;;;;;;;;5058048;28;20063;-77
2021/07/29 02:29:00;;;;;;;11.00;2.78;;;;;;;;;;5057942;28;20036;-77
2021/07/29 02:31:25;;;;;;;6.10;2.60;;;;;;;;;;5076426;28;20067;-77
2021/07/29 02:33:51;;;;;;;8.43;2.85;;;;;;;;;;5075284;28;20066;-77
2021/07/29 02:36:16;;;;;;;7.15;3.38;;;;;;;;;;5057378;28;20101;-77
2021/07/29 02:38:43;;;;;;;12.60;3.65;;;;;;;;;;5076094;28;20476;-77
2021/07/29 02:41:10;;;;;;;7.35;2.25;;;;;;;;;;5058038;28;20032;-77
2021/07/29 02:43:37;;;;;;;9.85;2.35;;;;;;;;;;5066152;28;20028;-77
2021/07/29 02:46:03;;;;;;;6.50;2.22;;;;;;;;;;5077603;28;20035;-77
2021/07/29 02:48:28;;;;;;;9.38;2.35;;;;;;;;;;5094671;28;20032;-77
2021/07/29 02:50:55;;;;;;;9.32;2.67;;;;;;;;;;5095051;28;20043;-76
2021/07/29 02:53:21;;;;;;;7.75;2.60;;;;;;;;;;5110672;28;20032;-80
2021/07/29 02:55:49;;;;;;;12.85;2.72;;;;;;;;;;5101574;28;20043;-81
2021/07/29 02:58:15;;;;;;;12.05;2.97;;;;;;;;;;5101571;28;20036;-83
2021/07/29 03:00:41;;;;;;;5.95;3.30;;;;;;;;;;5117412;28;20039;-77
2021/07/29 03:03:08;;;;;;;9.98;2.67;;;;;;;;;;5115141;28;20032;-77
2021/07/29 03:05:33;;;;;;;9.40;3.67;;;;;;;;;;5097905;28;20043;-77
2021/07/29 03:08:00;;;;;;;11.07;2.42;;;;;;;;;;5121310;28;20099;-79
2021/07/29 03:10:28;;;;;;;7.65;2.50;;;;;;;;;;5104717;28;20035;-79
2021/07/29 03:12:53;;;;;;;10.15;2.53;;;;;;;;;;5123872;28;20028;-79
2021/07/29 03:15:20;;;;;;;8.00;2.75;;;;;;;;;;5103725;28;20108;-79
2021/07/29 03:17:45;;;;;;;14.15;2.97;;;;;;;;;;5085650;28;20024;-78
2021/07/29 03:20:12;;;;;;;10.63;2.85;;;;;;;;;;5103145;28;20460;-79
2021/07/29 03:22:38;;;;;;;11.85;3.13;;;;;;;;;;5085665;28;20040;-79
2021/07/29 03:25:05;;;;;;;14.60;3.10;;;;;;;;;;5085036;28;20084;-79
2021/07/29 03:27:30;;;;;;;7.45;2.42;;;;;;;;;;5086878;28;20122;-80
2021/07/29 03:29:56;;;;;;;7.38;2.85;;;;;;;;;;5092642;28;20036;-80
2021/07/29 03:32:21;;;;;;;12.48;3.17;;;;;;;;;;5096911;28;20065;-81
2021/07/29 03:34:47;;;;;;;10.00;3.30;;;;;;;;;;5094100;28;20032;-81
2021/07/29 03:37:12;;;;;;;9.38;3.00;;;;;;;;;;5091626;28;20087;-81
2021/07/29 03:39:38;;;;;;;5.07;2.60;;;;;;;;;;5090187;28;20093;-81
2021/07/29 03:42:04;;;;;;;6.88;2.80;;;;;;;;;;5089015;28;20036;-81
2021/07/29 03:44:29;;;;;;;8.18;3.30;;;;;;;;;;5085430;28;20028;-80
2021/07/29 03:46:58;;;;;;;9.57;4.25;;;;;;;;;;5069043;28;20036;-80
2021/07/29 03:49:23;;;;;;;12.10;2.80;;;;;;;;;;5067680;28;20438;-80
2021/07/29 03:51:49;;;;;;;11.27;3.20;;;;;;;;;;5068360;28;20035;-80
2021/07/29 03:54:14;;;;;;;8.80;3.22;;;;;;;;;;5084142;28;20119;-80
2021/07/29 03:56:39;;;;;;;4.50;2.70;;;;;;;;;;5066672;28;20124;-80
2021/07/29 03:59:05;;;;;;;9.57;2.83;;;;;;;;;;5066636;28;20039;-80
2021/07/29 04:01:30;;;;;;;8.63;3.10;;;;;;;;;;5066990;28;20037;-80
2021/07/29 04:03:56;;;;;;;24.80;3.38;;;;;;;;;;5066369;28;20075;-80
2021/07/29 04:06:21;;;;;;;10.23;3.15;;;;;;;;;;5065009;28;20043;-80
2021/07/29 04:08:47;;;;;;;11.63;3.72;;;;;;;;;;5082635;28;20040;-80
2021/07/29 04:11:14;;;;;;;8.75;2.85;;;;;;;;;;5066217;28;20032;-80
2021/07/29 04:13:43;;;;;;;6.93;2.70;;;;;;;;;;5101428;28;20042;-80
2021/07/29 04:16:08;;;;;;;4.53;2.80;;;;;;;;;;5103786;28;20067;-80
2021/07/29 04:18:35;;;;;;;7.50;2.55;;;;;;;;;;5086151;28;20051;-80
2021/07/29 04:21:00;;;;;;;5.88;2.97;;;;;;;;;;5085159;28;20040;-80
2021/07/29 04:23:26;;;;;;;6.93;3.60;;;;;;;;;;5102004;28;20453;-79
2021/07/29 04:25:52;;;;;;;6.43;3.13;;;;;;;;;;5103683;28;20042;-79
2021/07/29 04:28:17;;;;;;;5.13;2.53;;;;;;;;;;5101270;28;20054;-79
2021/07/29 04:30:44;;;;;;;6.57;3.58;;;;;;;;;;5083668;28;20032;-79
2021/07/29 04:33:10;;;;;;;6.38;2.90;;;;;;;;;;5101505;28;20393;-79
2021/07/29 04:35:39;;;;;;;4.40;2.60;;;;;;;;;;5081061;28;20037;-79
2021/07/29 04:38:04;;;;;;;7.10;2.83;;;;;;;;;;5081591;28;20044;-79
2021/07/29 04:40:31;;;;;;;4.35;2.50;;;;;;;;;;5066744;28;20032;-79
2021/07/29 04:42:57;;;;;;;4.50;2.60;;;;;;;;;;5066791;28;20104;-79
2021/07/29 04:45:23;;;;;;;4.60;2.28;;;;;;;;;;5084155;28;20031;-79
2021/07/29 04:47:51;;;;;;;5.07;2.70;;;;;;;;;;5085283;28;20074;-79
2021/07/29 04:50:17;;;;;;;5.03;2.42;;;;;;;;;;5085299;28;20043;-79
2021/07/29 04:52:42;;;;;;;3.83;2.00;;;;;;;;;;5100498;28;20084;-79
2021/07/29 04:55:08;;;;;;;6.85;3.67;;;;;;;;;;5101974;28;20074;-79
2021/07/29 04:57:34;;;;;;;5.90;2.25;;;;;;;;;;5101498;28;20119;-79
2021/07/29 04:59:59;;;;;;;2.78;1.98;;;;;;;;;;5084217;28;20032;-78
2021/07/29 05:02:25;;;;;;;2.53;1.70;;;;;;;;;;5099965;28;20036;-79
2021/07/29 05:04:51;;;;;;;4.03;1.92;;;;;;;;;;5094828;28;20091;-78
2021/07/29 05:07:17;;;;;;;4.85;2.03;;;;;;;;;;5077805;28;20058;-77
2021/07/29 05:09:42;;;;;;;4.38;1.90;;;;;;;;;;5077245;28;20035;-77
2021/07/29 05:12:08;;;;;;;2.25;1.77;;;;;;;;;;5093983;28;20035;-78
2021/07/29 05:14:34;;;;;;;6.10;2.00;;;;;;;;;;5081529;28;20036;-78
2021/07/29 05:17:00;;;;;;;3.40;2.17;;;;;;;;;;5074000;28;20036;-78
2021/07/29 05:19:26;;;;;;;2.75;1.75;;;;;;;;;;5058003;28;20054;-78
2021/07/29 05:21:51;;;;;;;4.05;1.83;;;;;;;;;;5078821;28;20091;-78
2021/07/29 05:24:17;;;;;;;6.35;2.08;;;;;;;;;;5077542;28;20529;-78
2021/07/29 05:26:43;;;;;;;4.22;2.00;;;;;;;;;;5093833;28;20144;-77
2021/07/29 05:29:08;;;;;;;2.42;1.90;;;;;;;;;;5093759;28;20478;-77
2021/07/29 05:31:35;;;;;;;5.72;2.00;;;;;;;;;;5094132;28;20086;-77
2021/07/29 05:34:01;;;;;;;3.15;1.92;;;;;;;;;;5076332;28;20032;-77
2021/07/29 05:36:26;;;;;;;4.90;2.20;;;;;;;;;;5076307;28;20122;-77
2021/07/29 05:38:52;;;;;;;4.47;2.58;;;;;;;;;;5081715;28;20036;-77
2021/07/29 05:41:17;;;;;;;5.55;2.17;;;;;;;;;;5117507;28;20067;-77
2021/07/29 05:43:43;;;;;;;4.22;1.85;;;;;;;;;;5117531;28;20084;-77
2021/07/29 05:46:12;;;;;;;6.82;2.20;;;;;;;;;;5118221;28;20023;-77
2021/07/29 05:48:39;;;;;;;3.95;2.05;;;;;;;;;;5117312;28;20035;-77
2021/07/29 05:51:04;;;;;;;5.20;2.33;;;;;;;;;;5116016;28;20038;-77
2021/07/29 05:53:30;;;;;;;3.30;2.08;;;;;;;;;;5116449;28;20040;-77
2021/07/29 05:55:56;;;;;;;5.78;1.90;;;;;;;;;;5118287;28;20035;-77
2021/07/29 05:58:21;;;;;;;4.13;1.95;;;;;;;;;;5100311;28;20039;-77
2021/07/29 06:00:48;;;;;;;3.60;1.77;;;;;;;;;;5117292;28;20039;-77
2021/07/29 06:03:13;;;;;;;5.13;1.98;;;;;;;;;;5118572;28;20035;-77
2021/07/29 06:05:39;;;;;;;4.05;2.20;;;;;;;;;;5117280;28;20042;-77
2021/07/29 06:08:06;;;;;;;4.75;2.05;;;;;;;;;;5117320;28;20480;-77
2021/07/29 06:10:32;;;;;;;2.67;1.60;;;;;;;;;;5119003;28;20027;-77
2021/07/29 06:12:57;;;;;;;3.83;1.80;;;;;;;;;;5117889;28;20032;-77
2021/07/29 06:15:23;;;;;;;4.97;1.92;;;;;;;;;;5063475;28;20536;-78
2021/07/29 06:17:56;;;;;;;6.22;1.83;;;;;;;;;;5059876;28;20060;-77
2021/07/29 06:20:23;;;;;;;3.90;1.88;;;;;;;;;;5059963;28;20461;-78
2021/07/29 06:22:48;;;;;;;9.98;1.80;;;;;;;;;;5059807;28;20469;-77
2021/07/29 06:25:14;;;;;;;5.97;2.50;;;;;;;;;;5093277;28;20071;-78
2021/07/29 06:27:42;;;;;;;3.80;1.88;;;;;;;;;;5076743;28;20068;-77
2021/07/29 06:30:08;;;;;;;3.63;1.88;;;;;;;;;;5076624;28;20036;-78
2021/07/29 06:32:34;;;;;;;6.25;2.30;;;;;;;;;;5093380;28;20048;-77
2021/07/29 06:35:00;;;;;;;6.95;1.90;;;;;;;;;;5080136;28;20119;-78
2021/07/29 06:37:26;;;;;;;5.68;2.42;;;;;;;;;;5080037;28;20069;-78
2021/07/29 06:39:52;;;;;;;4.20;1.83;;;;;;;;;;5079426;28;20122;-77
2021/07/29 06:42:17;;;;;;;3.33;1.90;;;;;;;;;;5079781;28;20113;-77
2021/07/29 06:44:42;;;;;;;2.75;1.90;;;;;;;;;;5078682;28;20135;-77
2021/07/29 06:47:20;;;;;;;4.60;1.80;;;;;;;;;;5079324;28;20059;-77
2021/07/29 06:49:46;;;;;;;7.80;2.40;;;;;;;;;;5096313;28;20370;-77
2021/07/29 06:52:14;;;;;;;5.78;2.45;;;;;;;;;;5096912;28;20038;-77
2021/07/29 06:54:40;;;;;;;6.97;1.80;;;;;;;;;;5096284;28;20050;-77
2021/07/29 06:57:07;;;;;;;7.45;2.08;;;;;;;;;;5096749;28;20481;-78
2021/07/29 06:59:35;;;;;;;3.13;1.98;;;;;;;;;;5096972;28;20039;-78
2021/07/29 07:02:02;;;;;;;4.57;1.95;;;;;;;;;;5079165;28;20028;-77
2021/07/29 07:04:30;;;;;;;3.50;1.88;;;;;;;;;;5059530;28;20033;-78
2021/07/29 07:06:56;;;;;;;4.03;1.70;;;;;;;;;;5056826;28;20044;-78
2021/07/29 07:09:22;;;;;;;4.85;2.10;;;;;;;;;;5057800;28;20032;-78
2021/07/29 07:11:48;;;;;;;3.10;1.90;;;;;;;;;;5074436;28;20032;-77
2021/07/29 07:14:13;;;;;;;5.85;1.77;;;;;;;;;;5058114;28;20048;-77
2021/07/29 07:16:39;;;;;;;4.03;1.88;;;;;;;;;;5076367;28;20106;-78
2021/07/29 07:19:05;;;;;;;2.95;1.92;;;;;;;;;;5057053;28;20074;-77
2021/07/29 07:21:31;;;;;;;2.80;1.85;;;;;;;;;;5056309;28;20025;-77
2021/07/29 07:23:57;;;;;;;2.88;1.80;;;;;;;;;;5057673;28;20035;-80
2021/07/29 07:26:24;;;;;;;7.22;1.88;;;;;;;;;;5076036;28;20036;-79
2021/07/29 07:28:51;;;;;;;14.95;9.00;;;;;;;;;;5085732;28;20032;-79
2021/07/29 07:31:18;;;;;;;3.42;1.88;;;;;;;;;;5078021;28;20036;-79
2021/07/29 07:33:44;;;;;;;3.30;1.85;;;;;;;;;;5078824;28;20063;-80
2021/07/29 07:36:10;;;;;;;4.45;1.80;;;;;;;;;;5073396;28;20066;-76
2021/07/29 07:38:35;;;;;;;3.08;1.67;;;;;;;;;;5072747;28;20040;-76
2021/07/29 07:41:08;;;;;;;6.60;2.03;;;;;;;;;;5072345;28;20028;-76
2021/07/29 07:43:34;;;;;;;4.53;1.63;;;;;;;;;;5072789;28;20051;-76
2021/07/29 07:46:00;;;;;;;3.60;1.80;;;;;;;;;;5104497;28;20043;-76
2021/07/29 07:48:26;;;;;;;8.93;1.98;;;;;;;;;;5117111;28;20039;-79
2021/07/29 07:50:55;;;;;;;4.78;2.10;;;;;;;;;;5100423;28;20038;-80
2021/07/29 07:53:26;;;;;;;3.45;1.70;;;;;;;;;;5117943;28;20039;-80
2021/07/29 07:55:52;;;;;;;2.90;1.45;;;;;;;;;;5100172;28;20131;-80
2021/07/29 07:58:18;;;;;;;5.18;2.15;;;;;;;;;;5084979;28;20195;-80
2021/07/29 08:00:44;;;;;;;3.15;1.50;;;;;;;;;;5079657;28;20485;-80
2021/07/29 08:03:11;;;;;;;2.25;1.52;;;;;;;;;;5079243;28;20123;-80
2021/07/29 08:05:40;;;;;;;4.15;1.58;;;;;;;;;;5097224;28;20054;-80
2021/07/29 08:08:08;;;;;;;3.72;1.30;;;;;;;;;;5079105;28;20093;-81
2021/07/29 08:10:34;;;;;;;3.05;1.52;;;;;;;;;;5095909;28;20095;-80
2021/07/29 08:13:01;;;;;;;1.85;1.05;;;;;;;;;;5096772;28;20024;-80
2021/07/29 08:15:26;;;;;;;2.97;1.45;;;;;;;;;;5096639;28;20028;-81
2021/07/29 08:17:52;;;;;;;4.38;1.42;;;;;;;;;;5096402;28;20074;-81
2021/07/29 08:20:18;;;;;;;9.30;1.38;;;;;;;;;;5096873;28;20067;-81
2021/07/29 08:22:45;;;;;;;4.78;1.08;;;;;;;;;;5080136;28;20039;-81
2021/07/29 08:25:12;;;;;;;3.53;1.30;;;;;;;;;;5079655;28;20038;-81
2021/07/29 08:27:39;;;;;;;8.07;1.38;;;;;;;;;;5079709;28;20504;-80
2021/07/29 08:30:05;;;;;;;3.92;1.40;;;;;;;;;;5079102;28;20032;-80
2021/07/29 08:32:30;;;;;;;8.93;1.20;;;;;;;;;;5097447;28;20405;-80
2021/07/29 08:34:56;;;;;;;7.32;1.40;;;;;;;;;;5096556;28;20131;-80
2021/07/29 08:37:21;;;;;;;2.00;0.90;;;;;;;;;;5096050;28;20056;-79
2021/07/29 08:39:47;;;;;;;4.30;1.48;;;;;;;;;;5095246;28;20526;-79
2021/07/29 08:42:15;;;;;;;3.30;1.17;;;;;;;;;;5096014;28;20474;-80
2021/07/29 08:44:41;;;;;;;5.63;1.63;;;;;;;;;;5095332;28;20036;-79
2021/07/29 08:47:10;;;;;;;3.40;1.40;;;;;;;;;;5059977;28;20061;-79
2021/07/29 08:49:40;;;;;;;6.57;1.52;;;;;;;;;;5058973;28;20039;-80
2021/07/29 08:52:07;;;;;;;3.80;1.15;;;;;;;;;;5075237;28;20032;-81
2021/07/29 08:54:34;;;;;;;2.30;1.40;;;;;;;;;;5075847;28;20028;-81
2021/07/29 08:56:59;;;;;;;3.65;1.50;;;;;;;;;;5063691;28;20512;-80
2021/07/29 08:59:25;;;;;;;1.73;1.15;;;;;;;;;;5097678;28;20036;-83
2021/07/29 09:01:53;;;;;;;6.63;1.50;;;;;;;;;;5080330;28;20443;-81
2021/07/29 09:04:19;;;;;;;11.32;1.40;;;;;;;;;;5098041;28;20039;-82
2021/07/29 09:06:58;;;;;;;2.30;1.20;;;;;;;;;;5079601;28;20032;-79
2021/07/29 09:09:54;;;;;;;3.58;1.15;;;;;;;;;;5096757;28;20043;-78
2021/07/29 09:12:24;;;;;;;2.03;1.30;;;;;;;;;;5079928;28;20067;-80
2021/07/29 09:14:54;;;;;;;5.78;1.33;;;;;;;;;;5083198;28;20036;-83
2021/07/29 09:17:21;;;;;;;2.60;1.40;;;;;;;;;;5084391;28;20031;-80
2021/07/29 09:19:50;;;;;;;4.35;1.40;;;;;;;;;;5083827;28;20046;-81
2021/07/29 09:22:30;;;;;;;4.50;1.50;;;;;;;;;;5083965;28;20032;-82
2021/07/29 09:25:14;;;;;;;3.60;1.50;;;;;;;;;;5084340;28;20036;-81
2021/07/29 09:27:39;;;;;;;4.85;1.55;;;;;;;;;;5101152;28;20446;-81
2021/07/29 09:30:09;;;;;;;3.55;1.50;;;;;;;;;;5102094;28;20107;-82
2021/07/29 09:32:34;;;;;;;2.22;1.30;;;;;;;;;;5100745;28;20052;-83
2021/07/29 09:35:00;;;;;;;2.58;1.42;;;;;;;;;;5100665;28;20051;-82
2021/07/29 09:37:25;;;;;;;5.88;1.50;;;;;;;;;;5083642;28;20036;-81
2021/07/29 09:39:58;;;;;;;3.67;1.10;;;;;;;;;;5102118;28;20032;-81
2021/07/29 09:42:24;;;;;;;2.90;1.83;;;;;;;;;;5102101;28;20055;-83
2021/07/29 09:44:52;;;;;;;5.05;1.38;;;;;;;;;;5083881;28;20566;-81
2021/07/29 09:47:19;;;;;;;8.32;1.50;;;;;;;;;;5084701;28;20036;-81
2021/07/29 09:49:46;;;;;;;3.40;1.45;;;;;;;;;;5101431;28;20047;-81
2021/07/29 09:52:11;;;;;;;21.08;5.15;;;;;;;;;;5100275;28;20020;-81
2021/07/29 09:54:39;;;;;;;5.00;1.80;;;;;;;;;;5100352;28;20038;-81
2021/07/29 09:57:06;;;;;;;9.45;1.38;;;;;;;;;;5083052;28;20043;-82
2021/07/29 09:59:34;;;;;;;2.28;1.30;;;;;;;;;;5101152;28;20036;-83
2021/07/29 10:02:02;;;;;;;10.85;1.50;;;;;;;;;;5082887;28;20093;-82
2021/07/29 10:04:33;;;;;;;4.40;1.40;;;;;;;;;;5098925;28;20054;-79
2021/07/29 10:07:02;;;;;;;1.33;1.00;;;;;;;;;;5096017;28;20052;-81
2021/07/29 10:09:30;;;;;;;7.10;1.75;;;;;;;;;;5064571;28;20025;-78
2021/07/29 10:11:59;;;;;;;2.95;1.40;;;;;;;;;;5065704;28;20113;-84
2021/07/29 10:14:48;;;;;;;4.20;1.70;;;;;;;;;;5110267;28;20052;-83
2021/07/29 10:17:14;;;;;;;2.03;1.10;;;;;;;;;;5104355;28;20122;-85
2021/07/29 10:20:15;;;;;;;3.83;1.40;;;;;;;;;;5103947;28;20123;-85
2021/07/29 10:22:45;;;;;;;3.97;1.15;;;;;;;;;;5103957;28;20515;-80
2021/07/29 10:25:13;;;;;;;5.85;1.70;;;;;;;;;;5120992;28;20108;-84
2021/07/29 10:28:21;;;;;;;4.63;1.40;;;;;;;;;;5120431;28;20055;-81
2021/07/29 10:30:54;;;;;;;2.67;1.20;;;;;;;;;;5105442;28;20028;-83
2021/07/29 10:33:23;;;;;;;7.93;1.50;;;;;;;;;;5082227;28;20032;-83
2021/07/29 10:35:51;;;;;;;6.22;1.40;;;;;;;;;;5062516;28;20561;-84
2021/07/29 10:38:38;;;;;;;4.88;1.10;;;;;;;;;;5110170;28;20400;-82
2021/07/29 10:41:07;;;;;;;7.13;1.50;;;;;;;;;;5104670;28;20027;-84
2021/07/29 10:43:32;;;;;;;4.65;1.30;;;;;;;;;;5103670;28;20267;-84
2021/07/29 10:46:01;;;;;;;4.00;1.33;;;;;;;;;;5082389;28;20135;-84
2021/07/29 10:48:43;;;;;;;3.22;1.13;;;;;;;;;;5098315;28;20051;-82
2021/07/29 10:51:14;;;;;;;3.42;1.50;;;;;;;;;;5082236;28;20036;-82
2021/07/29 10:53:41;;;;;;;2.38;1.05;;;;;;;;;;5082111;28;20378;-81
2021/07/29 10:56:08;;;;;;;11.70;1.77;;;;;;;;;;5099377;28;20085;-83
2021/07/29 10:59:03;;;;;;;6.25;1.10;;;;;;;;;;5078331;28;20501;-80
2021/07/29 11:01:51;;;;;;;3.47;1.20;;;;;;;;;;5056279;28;20445;-82
2021/07/29 11:04:17;;;;;;;3.15;1.38;;;;;;;;;;5067143;28;20062;-80
2021/07/29 11:06:43;;;;;;;2.72;1.00;;;;;;;;;;5080647;28;20039;-80
2021/07/29 11:09:19;;;;;;;6.72;1.40;;;;;;;;;;5073313;28;20029;-80
2021/07/29 11:11:47;;;;;;;7.38;1.30;;;;;;;;;;5076039;28;20032;-80
2021/07/29 11:14:20;;;;;;;12.13;1.50;;;;;;;;;;5077721;28;20081;-81
2021/07/29 11:16:46;;;;;;;4.50;1.83;;;;;;;;;;5060240;28;20519;-80
2021/07/29 11:19:12;;;;;;;6.38;1.20;;;;;;;;;;5060500;28;20034;-80
2021/07/29 11:21:37;;;;;;;2.72;1.40;;;;;;;;;;5060834;28;20112;-80
2021/07/29 11:24:03;;;;;;;4.95;1.20;;;;;;;;;;5078523;28;20556;-80
2021/07/29 11:26:44;;;;;;;4.65;1.48;;;;;;;;;;5077395;28;20036;-80
2021/07/29 11:29:10;;;;;;;3.90;1.17;;;;;;;;;;5060246;28;20032;-80
2021/07/29 11:31:38;;;;;;;9.90;1.35;;;;;;;;;;5060131;28;20041;-80
2021/07/29 11:34:05;;;;;;;5.05;1.45;;;;;;;;;;5060186;28;20062;-80
2021/07/29 11:36:34;;;;;;;5.25;1.52;;;;;;;;;;5076028;28;20044;-80
2021/07/29 11:39:03;;;;;;;6.68;1.70;;;;;;;;;;5060348;28;20068;-81
2021/07/29 11:41:29;;;;;;;4.85;1.55;;;;;;;;;;5076804;28;20107;-81
2021/07/29 11:43:59;;;;;;;5.90;1.80;;;;;;;;;;5097030;28;20043;-81
2021/07/29 11:46:25;;;;;;;4.55;1.20;;;;;;;;;;5080302;28;20051;-81
2021/07/29 11:49:07;;;;;;;7.80;1.30;;;;;;;;;;5080667;28;20040;-80
2021/07/29 11:51:33;;;;;;;3.03;1.25;;;;;;;;;;5097656;28;20032;-81
2021/07/29 11:53:59;;;;;;;3.63;1.40;;;;;;;;;;5096341;28;20062;-81
2021/07/29 11:56:26;;;;;;;6.45;1.60;;;;;;;;;;5079712;28;20043;-79
2021/07/29 11:58:59;;;;;;;9.27;1.50;;;;;;;;;;5096409;28;20032;-80
2021/07/29 12:01:26;;;;;;;7.55;1.42;;;;;;;;;;5079178;28;20477;-81
2021/07/29 12:03:52;;;;;;;9.73;2.80;;;;;;;;;;5096887;28;20035;-81
2021/07/29 12:06:18;;;;;;;3.45;1.20;;;;;;;;;;5096587;28;20119;-81
2021/07/29 12:08:45;;;;;;;9.30;0.90;;;;;;;;;;5096548;28;20055;-81
2021/07/29 12:11:11;;;;;;;5.05;1.15;;;;;;;;;;5079072;28;20035;-81
2021/07/29 12:13:41;;;;;;;4.43;1.40;;;;;;;;;;5086568;28;20102;-81
2021/07/29 12:16:07;;;;;;;4.50;1.20;;;;;;;;;;5116642;28;20031;-80
2021/07/29 12:18:32;;;;;;;8.32;1.90;;;;;;;;;;5099666;28;20147;-81
2021/07/29 12:20:58;;;;;;;5.55;1.63;;;;;;;;;;5115981;28;20083;-80
2021/07/29 12:23:25;;;;;;;3.60;1.48;;;;;;;;;;5099367;28;20031;-80
2021/07/29 12:25:52;;;;;;;6.20;1.35;;;;;;;;;;5116023;28;20090;-80
2021/07/29 12:28:42;;;;;;;2.50;1.05;;;;;;;;;;5116218;28;20027;-81
2021/07/29 12:31:28;;;;;;;4.97;1.40;;;;;;;;;;5116027;28;20040;-80
2021/07/29 12:34:02;;;;;;;3.58;1.17;;;;;;;;;;5116284;28;20039;-80
2021/07/29 12:36:45;;;;;;;5.35;1.10;;;;;;;;;;5099268;28;20130;-80
2021/07/29 12:39:12;;;;;;;3.22;1.40;;;;;;;;;;5099112;28;20031;-80
2021/07/29 12:41:40;;;;;;;2.97;1.25;;;;;;;;;;5099048;28;20032;-80
2021/07/29 12:44:09;;;;;;;6.38;1.20;;;;;;;;;;5107444;28;20035;-81
2021/07/29 12:46:35;;;;;;;5.00;1.38;;;;;;;;;;5095319;28;20573;-80
2021/07/29 12:49:00;;;;;;;5.40;1.23;;;;;;;;;;5081696;28;20060;-81
2021/07/29 12:51:37;;;;;;;4.20;1.15;;;;;;;;;;5101145;28;20377;-81
2021/07/29 12:54:05;;;;;;;10.55;1.63;;;;;;;;;;5084499;28;20062;-81
2021/07/29 12:56:31;;;;;;;3.63;1.15;;;;;;;;;;5101008;28;20031;-81
2021/07/29 12:58:56;;;;;;;3.58;1.10;;;;;;;;;;5100827;28;20377;-80
2021/07/29 13:01:22;;;;;;;2.13;1.00;;;;;;;;;;5100525;28;20165;-79
2021/07/29 13:03:47;;;;;;;6.63;1.20;;;;;;;;;;5083725;28;20043;-80
2021/07/29 13:06:12;;;;;;;3.88;1.40;;;;;;;;;;5101328;28;20039;-80
2021/07/29 13:08:38;;;;;;;4.82;1.58;;;;;;;;;;5099472;28;20044;-81
2021/07/29 13:11:04;;;;;;;5.88;1.60;;;;;;;;;;5100210;28;20254;-80
2021/07/29 13:13:32;;;;;;;6.80;1.52;;;;;;;;;;5080543;28;20122;-81
2021/07/29 13:15:58;;;;;;;5.10;1.25;;;;;;;;;;5063000;28;20032;-80
2021/07/29 13:18:24;;;;;;;4.43;1.10;;;;;;;;;;5079435;28;20034;-81
2021/07/29 13:20:50;;;;;;;8.55;1.63;;;;;;;;;;5062573;28;20059;-80
2021/07/29 13:23:16;;;;;;;7.57;1.92;;;;;;;;;;5062265;28;20040;-81
2021/07/29 13:25:44;;;;;;;6.70;1.27;;;;;;;;;;5078892;28;20097;-81
2021/07/29 13:28:10;;;;;;;11.15;1.63;;;;;;;;;;5062745;28;20393;-80
2021/07/29 13:30:36;;;;;;;6.20;1.50;;;;;;;;;;5062561;28;20036;-80
2021/07/29 13:33:01;;;;;;;7.80;1.60;;;;;;;;;;5093737;28;20036;-80
2021/07/29 13:35:27;;;;;;;4.15;1.67;;;;;;;;;;5082012;28;20054;-80
2021/07/29 13:37:52;;;;;;;6.43;1.10;;;;;;;;;;5082552;28;20039;-81
2021/07/29 13:40:18;;;;;;;2.97;1.58;;;;;;;;;;5101201;28;20036;-81
2021/07/29 13:42:47;;;;;;;3.30;1.40;;;;;;;;;;5099505;28;20039;-81
2021/07/29 13:45:20;;;;;;;3.58;1.40;;;;;;;;;;5098607;28;20034;-81
2021/07/29 13:47:51;;;;;;;7.78;1.13;;;;;;;;;;5102704;28;20113;-81
2021/07/29 13:50:22;;;;;;;5.30;1.30;;;;;;;;;;5101947;28;20031;-81
2021/07/29 13:52:49;;;;;;;13.85;1.58;;;;;;;;;;5102362;28;20035;-81
2021/07/29 13:55:16;;;;;;;3.22;1.17;;;;;;;;;;5102279;28;20046;-81
2021/07/29 13:57:42;;;;;;;3.67;1.25;;;;;;;;;;5102443;28;20145;-81
2021/07/29 14:00:17;;;;;;;6.82;1.10;;;;;;;;;;5102503;28;20408;-81
2021/07/29 14:02:42;;;;;;;7.60;1.60;;;;;;;;;;5120377;28;20084;-81
2021/07/29 14:05:10;;;;;;;5.28;1.27;;;;;;;;;;5103022;28;20434;-81
2021/07/29 14:07:36;;;;;;;5.35;1.50;;;;;;;;;;5120494;28;20036;-81
2021/07/29 14:10:04;;;;;;;3.25;1.17;;;;;;;;;;5120410;28;20023;-81
2021/07/29 14:12:30;;;;;;;8.10;1.60;;;;;;;;;;5121513;28;20385;-81
2021/07/29 14:14:57;;;;;;;5.13;1.30;;;;;;;;;;5089198;28;20043;-81
2021/07/29 14:25:25;;;;;;;7.28;1.30;;;;;;;;;;5099053;28;20035;-81
2021/07/29 14:27:52;;;;;;;9.32;1.90;;;;;;;;;;5082475;28;20409;-80
2021/07/29 14:30:18;;;;;;;6.25;1.65;;;;;;;;;;5081791;28;20032;-81
2021/07/29 14:32:44;;;;;;;3.40;1.30;;;;;;;;;;5082024;28;20549;-80
2021/07/29 14:35:09;;;;;;;5.82;1.65;;;;;;;;;;5081614;28;20100;-80
2021/07/29 14:37:35;;;;;;;8.73;1.80;;;;;;;;;;5082304;28;20035;-81
2021/07/29 14:40:01;;;;;;;3.72;1.23;;;;;;;;;;5099041;28;20081;-79
2021/07/29 14:42:26;;;;;;;5.97;1.70;;;;;;;;;;5118185;28;20122;-80
2021/07/29 14:44:58;;;;;;;4.93;1.50;;;;;;;;;;5119141;28;20447;-80
2021/07/29 14:50:08;;;;;;;9.18;1.85;;;;;;;;;;5118736;28;20036;-80
2021/07/29 14:52:34;;;;;;;8.95;1.48;;;;;;;;;;5099461;28;20039;-81